Time;durP1;ratioP1;P1;durP2;ratioP2;P2;SDS_P1;SDS_P2;PMS_P1;PMS_P2;Temp;Humidity;BMP_temperature;BMP_pressure;BME280_temperature;BME280_humidity;BME280_pressure;Samples;Min_cycle;Max_cycle;Signal;HPM_P1;HPM_P2
2022/02/19 00:00:57;;;;;;;21.92;2.70;;;6.00;36.50;;;;;;5032997;28;20432;-70
2022/02/19 00:03:23;;;;;;;13.63;2.80;;;6.00;36.40;;;;;;5027312;28;20476;-72
2022/02/19 00:05:49;;;;;;;7.77;2.40;;;6.00;34.80;;;;;;5029749;28;20403;-71
2022/02/19 00:08:15;;;;;;;14.68;2.50;;;6.10;33.10;;;;;;5031817;28;20488;-72
2022/02/19 00:10:42;;;;;;;18.17;2.67;;;6.10;32.50;;;;;;5028134;28;20400;-73
2022/02/19 00:13:09;;;;;;;14.23;2.40;;;6.10;32.20;;;;;;5031029;28;20807;-70
2022/02/19 00:15:35;;;;;;;18.48;2.75;;;6.20;31.80;;;;;;5026266;28;20459;-72
2022/02/19 00:18:01;;;;;;;12.63;2.80;;;6.20;31.30;;;;;;5025607;28;20413;-72
2022/02/19 00:20:26;;;;;;;18.60;2.70;;;6.30;30.90;;;;;;5030041;28;20403;-71
2022/02/19 00:22:52;;;;;;;12.47;2.23;;;6.30;30.90;;;;;;5031134;28;20432;-73
2022/02/19 00:25:19;;;;;;;12.20;2.13;;;6.30;29.70;;;;;;5032488;28;20565;-72
2022/02/19 00:27:44;;;;;;;10.55;2.30;;;6.30;29.80;;;;;;5029713;28;20474;-72
2022/02/19 00:30:11;;;;;;;9.45;2.13;;;6.40;28.30;;;;;;5026607;28;20466;-72
2022/02/19 00:32:36;;;;;;;8.80;2.17;;;6.40;28.40;;;;;;5027675;28;20910;-71
2022/02/19 00:35:03;;;;;;;11.93;2.67;;;6.40;27.70;;;;;;5030286;28;20407;-72
2022/02/19 00:37:28;;;;;;;9.65;1.92;;;6.40;26.80;;;;;;5029161;28;20406;-70
2022/02/19 00:39:55;;;;;;;13.37;2.97;;;6.50;26.90;;;;;;5029975;28;20407;-70
2022/02/19 00:42:20;;;;;;;11.85;2.40;;;6.40;27.30;;;;;;5030541;28;20914;-70
2022/02/19 00:44:46;;;;;;;9.53;2.53;;;6.50;26.50;;;;;;5029659;28;20481;-73
2022/02/19 00:47:12;;;;;;;10.83;2.37;;;6.60;25.70;;;;;;5031144;28;20430;-72
2022/02/19 00:49:37;;;;;;;19.95;2.38;;;6.70;25.70;;;;;;5028330;28;20411;-73
2022/02/19 00:52:03;;;;;;;13.82;3.10;;;6.70;26.30;;;;;;5030761;28;20395;-71
2022/02/19 00:54:29;;;;;;;10.48;2.55;;;6.80;24.80;;;;;;5029078;28;20426;-72
2022/02/19 00:56:54;;;;;;;7.33;2.53;;;6.80;25.10;;;;;;5030361;28;20396;-73
2022/02/19 00:59:20;;;;;;;8.50;2.30;;;6.80;24.80;;;;;;5032769;28;20429;-73
2022/02/19 01:01:46;;;;;;;16.17;2.57;;;6.80;25.60;;;;;;5024884;28;20520;-72
2022/02/19 01:04:11;;;;;;;10.20;2.40;;;6.80;26.10;;;;;;5034859;28;20869;-72
2022/02/19 01:06:37;;;;;;;10.93;2.53;;;6.80;26.10;;;;;;5032156;28;20395;-72
2022/02/19 01:09:02;;;;;;;12.35;2.60;;;6.80;26.60;;;;;;5034374;28;20395;-73
2022/02/19 01:11:28;;;;;;;8.63;2.40;;;6.80;26.70;;;;;;5034027;28;20398;-72
2022/02/19 01:13:54;;;;;;;17.97;3.30;;;6.80;26.20;;;;;;5031219;28;20491;-71
2022/02/19 01:16:19;;;;;;;14.37;2.30;;;6.80;26.30;;;;;;5022802;28;20399;-73
2022/02/19 01:18:45;;;;;;;9.73;1.97;;;6.80;26.20;;;;;;5025976;28;20405;-73
2022/02/19 01:21:11;;;;;;;13.80;2.50;;;6.80;26.20;;;;;;5027919;28;20548;-73
2022/02/19 01:23:36;;;;;;;11.25;3.28;;;6.70;26.80;;;;;;5027468;28;20497;-73
2022/02/19 01:26:03;;;;;;;15.20;2.70;;;6.60;28.20;;;;;;5034318;28;20410;-74
2022/02/19 01:28:30;;;;;;;14.43;2.80;;;6.50;28.40;;;;;;5030378;28;20421;-74
2022/02/19 01:30:57;;;;;;;17.05;2.60;;;6.50;28.70;;;;;;5026604;28;20486;-73
2022/02/19 01:33:22;;;;;;;12.48;2.88;;;6.50;28.60;;;;;;5029845;28;20763;-73
2022/02/19 01:35:48;;;;;;;11.70;2.60;;;6.40;28.90;;;;;;5024366;28;20420;-74
2022/02/19 01:38:14;;;;;;;13.20;2.83;;;6.30;28.90;;;;;;5030094;28;20883;-73
2022/02/19 01:40:39;;;;;;;12.73;2.70;;;6.40;27.30;;;;;;5027419;28;20414;-73
2022/02/19 01:43:05;;;;;;;19.52;2.88;;;6.50;26.20;;;;;;5028851;28;20461;-73
2022/02/19 01:45:31;;;;;;;13.93;2.40;;;6.50;26.50;;;;;;5037193;28;20399;-74
2022/02/19 01:47:56;;;;;;;19.00;2.80;;;6.60;26.20;;;;;;5022456;28;20403;-73
2022/02/19 01:50:22;;;;;;;11.00;1.93;;;6.50;27.10;;;;;;5028256;28;20932;-73
2022/02/19 01:52:48;;;;;;;12.80;2.40;;;6.50;26.20;;;;;;5027165;28;20403;-74
2022/02/19 01:55:14;;;;;;;15.63;2.70;;;6.50;26.00;;;;;;5030744;28;20706;-74
2022/02/19 01:57:40;;;;;;;11.80;2.53;;;6.50;26.00;;;;;;5026652;28;20476;-73
2022/02/19 02:00:07;;;;;;;10.25;2.25;;;6.40;25.80;;;;;;5026406;28;20810;-73
2022/02/19 02:02:33;;;;;;;8.95;2.28;;;6.40;25.70;;;;;;5027511;28;20415;-74
2022/02/19 02:04:59;;;;;;;8.90;2.10;;;6.50;24.30;;;;;;5028391;28;20395;-74
2022/02/19 02:07:25;;;;;;;12.43;2.20;;;6.60;24.10;;;;;;5027938;28;20473;-74
2022/02/19 02:09:51;;;;;;;14.98;2.78;;;6.70;24.40;;;;;;5026414;28;20405;-72
2022/02/19 02:12:17;;;;;;;9.88;2.60;;;6.70;24.10;;;;;;5023825;28;20401;-74
2022/02/19 02:14:43;;;;;;;12.80;2.50;;;6.80;23.00;;;;;;5026165;28;20405;-74
2022/02/19 02:17:10;;;;;;;11.05;2.33;;;6.80;23.40;;;;;;5028486;28;20919;-74
2022/02/19 02:19:37;;;;;;;10.57;2.20;;;6.80;22.80;;;;;;5027335;28;20406;-74
2022/02/19 02:22:04;;;;;;;10.05;2.50;;;6.80;22.80;;;;;;5028346;28;20430;-73
2022/02/19 02:24:33;;;;;;;20.38;2.78;;;6.80;22.80;;;;;;5027629;28;20383;-74
2022/02/19 02:26:59;;;;;;;11.52;2.13;;;6.80;22.90;;;;;;5024486;28;20486;-74
2022/02/19 02:29:25;;;;;;;12.68;2.72;;;6.80;22.90;;;;;;5025155;28;20394;-74
2022/02/19 02:31:51;;;;;;;7.50;2.10;;;6.80;22.80;;;;;;5025558;28;20391;-73
2022/02/19 02:34:19;;;;;;;9.50;1.90;;;6.80;22.90;;;;;;5022328;28;20399;-74
2022/02/19 02:36:44;;;;;;;4.65;1.70;;;6.80;23.00;;;;;;5026925;28;20460;-73
2022/02/19 02:39:10;;;;;;;12.70;1.90;;;6.80;23.30;;;;;;5023787;28;20395;-73
2022/02/19 02:41:35;;;;;;;10.70;2.10;;;6.80;22.70;;;;;;5046248;28;20391;-73
2022/02/19 02:44:01;;;;;;;10.03;2.30;;;6.80;22.50;;;;;;5033710;28;20402;-73
2022/02/19 02:46:27;;;;;;;8.80;2.37;;;6.80;22.90;;;;;;5032316;28;20455;-73
2022/02/19 02:48:52;;;;;;;9.60;2.10;;;6.70;23.20;;;;;;5029261;28;20921;-73
2022/02/19 02:51:18;;;;;;;14.50;2.10;;;6.80;23.20;;;;;;5025280;28;20455;-74
2022/02/19 02:53:45;;;;;;;8.35;2.00;;;6.80;23.50;;;;;;5026050;28;20518;-74
2022/02/19 02:56:11;;;;;;;9.03;1.83;;;6.80;23.70;;;;;;5027848;28;20489;-72
2022/02/19 02:58:37;;;;;;;11.48;2.30;;;6.80;23.40;;;;;;5026455;28;20919;-73
2022/02/19 03:01:05;;;;;;;11.82;2.08;;;6.80;23.30;;;;;;5031106;28;20389;-74
2022/02/19 03:03:31;;;;;;;7.90;2.10;;;6.80;23.60;;;;;;5027478;28;20468;-73
2022/02/19 03:05:56;;;;;;;7.90;2.00;;;6.80;23.80;;;;;;5026530;28;20797;-74
2022/02/19 03:08:22;;;;;;;6.80;2.00;;;6.80;24.10;;;;;;5026595;28;20400;-73
2022/02/19 03:10:48;;;;;;;7.37;1.93;;;6.70;24.10;;;;;;5024122;28;20401;-74
2022/02/19 03:13:13;;;;;;;11.35;2.20;;;6.70;24.40;;;;;;5027881;28;20400;-74
2022/02/19 03:15:40;;;;;;;16.33;2.50;;;6.70;24.30;;;;;;5032005;28;20407;-73
2022/02/19 03:18:06;;;;;;;12.43;2.93;;;6.70;24.30;;;;;;5040474;28;20391;-74
2022/02/19 03:20:33;;;;;;;10.98;1.83;;;6.70;24.60;;;;;;5024044;28;20395;-74
2022/02/19 03:22:59;;;;;;;12.65;2.33;;;6.70;24.90;;;;;;5022716;28;20408;-73
2022/02/19 03:25:26;;;;;;;10.52;2.35;;;6.80;24.60;;;;;;5028012;28;20406;-73
2022/02/19 03:27:51;;;;;;;5.32;2.20;;;6.80;24.50;;;;;;5019191;28;20811;-73
2022/02/19 03:30:17;;;;;;;7.93;1.80;;;6.80;24.50;;;;;;5028849;28;20522;-73
2022/02/19 03:32:45;;;;;;;8.30;2.30;;;6.80;24.90;;;;;;5025526;28;20484;-73
2022/02/19 03:35:11;;;;;;;6.60;2.17;;;6.70;24.70;;;;;;5027246;28;20749;-73
2022/02/19 03:37:38;;;;;;;8.45;2.30;;;6.70;24.70;;;;;;5028825;28;20446;-72
2022/02/19 03:40:06;;;;;;;12.93;2.28;;;6.70;25.10;;;;;;5032786;28;20403;-73
2022/02/19 03:42:40;;;;;;;7.60;1.70;;;6.60;25.00;;;;;;5027508;28;20415;-72
2022/02/19 03:45:09;;;;;;;7.50;2.22;;;6.60;25.30;;;;;;5026565;28;20423;-73
2022/02/19 03:47:35;;;;;;;10.75;2.30;;;6.70;25.20;;;;;;5026411;28;20396;-73
2022/02/19 03:50:02;;;;;;;9.93;2.00;;;6.70;25.30;;;;;;5041934;28;20399;-73
2022/02/19 03:52:28;;;;;;;5.88;1.92;;;6.60;25.30;;;;;;5028537;28;20387;-73
2022/02/19 03:54:53;;;;;;;10.77;2.10;;;6.60;25.50;;;;;;5024454;28;20495;-73
2022/02/19 03:57:19;;;;;;;8.27;2.42;;;6.60;25.20;;;;;;5022454;28;20403;-74
2022/02/19 03:59:45;;;;;;;9.60;1.98;;;6.60;25.30;;;;;;5030253;28;20898;-75
2022/02/19 04:02:10;;;;;;;13.13;2.20;;;6.60;25.20;;;;;;5027725;28;20410;-74
2022/02/19 04:04:36;;;;;;;9.40;2.13;;;6.60;25.50;;;;;;5030652;28;20418;-74
2022/02/19 04:07:02;;;;;;;15.80;2.40;;;6.60;25.50;;;;;;5025500;28;20393;-74
2022/02/19 04:09:27;;;;;;;7.33;2.50;;;6.60;25.50;;;;;;5023161;28;20476;-73
2022/02/19 04:11:53;;;;;;;8.50;2.17;;;6.60;25.50;;;;;;5033707;28;20410;-74
2022/02/19 04:14:18;;;;;;;9.35;2.30;;;6.60;25.70;;;;;;5029817;28;20748;-74
2022/02/19 04:16:44;;;;;;;9.60;2.20;;;6.50;25.80;;;;;;5019211;28;20433;-73
2022/02/19 04:19:09;;;;;;;12.68;2.10;;;6.50;26.30;;;;;;5024468;28;20420;-73
2022/02/19 04:21:35;;;;;;;12.85;2.80;;;6.50;26.00;;;;;;5022518;28;20383;-74
2022/02/19 04:24:00;;;;;;;7.15;1.88;;;6.50;26.50;;;;;;5025301;28;20415;-74
2022/02/19 04:26:26;;;;;;;14.87;2.10;;;6.40;26.70;;;;;;5026670;28;20418;-74
2022/02/19 04:28:51;;;;;;;9.10;2.20;;;6.40;27.20;;;;;;5025438;28;20495;-74
2022/02/19 04:31:17;;;;;;;9.03;1.97;;;6.40;26.90;;;;;;5026649;28;20399;-74
2022/02/19 04:33:43;;;;;;;12.57;2.20;;;6.40;27.10;;;;;;5021492;28;20820;-74
2022/02/19 04:36:09;;;;;;;11.48;1.52;;;6.40;27.20;;;;;;5019888;28;20400;-74
2022/02/19 04:38:34;;;;;;;13.47;2.60;;;6.40;27.00;;;;;;5037668;28;20395;-74
2022/02/19 04:41:00;;;;;;;5.40;1.90;;;6.30;27.50;;;;;;5028688;28;20828;-73
2022/02/19 04:43:26;;;;;;;12.87;2.00;;;6.30;27.90;;;;;;5020871;28;20444;-74
2022/02/19 04:45:51;;;;;;;9.50;2.80;;;6.20;28.10;;;;;;5028864;28;20469;-73
2022/02/19 04:48:17;;;;;;;10.60;2.00;;;6.20;28.60;;;;;;5026276;28;20515;-73
2022/02/19 04:50:43;;;;;;;10.23;2.00;;;6.10;28.70;;;;;;5026954;28;20390;-73
2022/02/19 04:53:09;;;;;;;7.63;2.40;;;6.10;28.70;;;;;;5023616;28;20399;-74
2022/02/19 04:55:35;;;;;;;7.32;1.90;;;6.10;29.10;;;;;;5023902;28;20478;-73
2022/02/19 04:58:03;;;;;;;10.88;2.70;;;6.00;29.40;;;;;;5024689;28;20762;-72
2022/02/19 05:00:28;;;;;;;15.48;2.60;;;5.90;30.20;;;;;;5029582;28;20410;-73
2022/02/19 05:02:54;;;;;;;13.32;2.38;;;5.80;30.50;;;;;;5028241;28;20412;-73
2022/02/19 05:05:20;;;;;;;12.53;2.33;;;5.80;30.70;;;;;;5031322;28;20763;-73
2022/02/19 05:07:46;;;;;;;4.97;1.80;;;5.70;30.70;;;;;;5022191;28;20401;-72
2022/02/19 05:10:11;;;;;;;6.40;2.05;;;5.70;30.70;;;;;;5029691;28;20391;-72
2022/02/19 05:12:40;;;;;;;9.27;2.07;;;5.70;30.80;;;;;;5047906;28;20426;-72
2022/02/19 05:15:11;;;;;;;10.88;2.20;;;5.70;30.70;;;;;;5033078;28;20400;-73
2022/02/19 05:17:51;;;;;;;12.93;2.30;;;5.80;30.50;;;;;;5028997;28;20402;-72
2022/02/19 05:20:23;;;;;;;14.85;2.13;;;5.90;30.40;;;;;;5027791;28;20434;-72
2022/02/19 05:22:50;;;;;;;9.30;2.13;;;5.90;32.20;;;;;;5021936;28;20503;-72
2022/02/19 05:25:16;;;;;;;8.43;2.17;;;5.80;33.80;;;;;;5029429;28;20445;-72
2022/02/19 05:27:42;;;;;;;10.20;2.10;;;5.70;33.90;;;;;;5028589;28;20395;-72
2022/02/19 05:30:08;;;;;;;9.93;1.80;;;5.70;32.90;;;;;;5028542;28;20416;-73
2022/02/19 05:32:34;;;;;;;16.67;2.47;;;5.70;32.30;;;;;;5029449;28;20452;-73
2022/02/19 05:35:00;;;;;;;8.85;2.00;;;5.70;32.90;;;;;;5023938;28;20408;-74
2022/02/19 05:37:28;;;;;;;13.47;2.30;;;5.60;32.90;;;;;;5025613;28;20391;-73
2022/02/19 05:39:54;;;;;;;11.85;1.95;;;5.50;32.10;;;;;;5027774;28;20863;-74
2022/02/19 05:42:19;;;;;;;11.07;2.50;;;5.60;31.70;;;;;;5030458;28;20411;-73
2022/02/19 05:44:45;;;;;;;12.33;2.03;;;5.50;31.70;;;;;;5029923;28;21003;-77
2022/02/19 05:47:10;;;;;;;10.63;2.40;;;5.50;32.10;;;;;;5030901;28;20394;-75
2022/02/19 05:49:36;;;;;;;5.50;1.80;;;5.50;31.60;;;;;;5027032;28;20406;-72
2022/02/19 05:52:02;;;;;;;10.35;2.40;;;5.60;31.40;;;;;;5027582;28;20399;-72
2022/02/19 05:54:27;;;;;;;12.37;3.30;;;5.60;31.50;;;;;;5029647;28;20831;-74
2022/02/19 05:56:53;;;;;;;5.50;1.70;;;5.60;31.60;;;;;;5026582;28;20752;-73
2022/02/19 05:59:18;;;;;;;6.03;1.87;;;5.70;30.70;;;;;;5031685;28;20401;-73
2022/02/19 06:01:44;;;;;;;11.40;2.17;;;5.70;31.40;;;;;;5028043;28;20403;-73
2022/02/19 06:04:09;;;;;;;11.73;2.40;;;5.60;31.20;;;;;;5026739;28;20850;-73
2022/02/19 06:06:35;;;;;;;13.00;2.10;;;5.60;30.90;;;;;;5025078;28;20395;-73
2022/02/19 06:09:01;;;;;;;9.70;2.20;;;5.60;31.10;;;;;;5027483;28;20804;-73
2022/02/19 06:11:26;;;;;;;12.02;3.03;;;5.60;31.00;;;;;;5028996;28;20394;-73
2022/02/19 06:13:52;;;;;;;5.30;1.70;;;5.60;30.60;;;;;;5027509;28;20431;-73
2022/02/19 06:16:17;;;;;;;8.50;2.00;;;5.60;30.10;;;;;;5027975;28;20754;-77
2022/02/19 06:18:43;;;;;;;9.67;2.80;;;5.60;30.90;;;;;;5027967;28;20776;-73
2022/02/19 06:21:08;;;;;;;13.43;2.70;;;5.60;29.90;;;;;;5027552;28;20396;-73
2022/02/19 06:23:34;;;;;;;10.20;1.93;;;5.60;30.70;;;;;;5028685;28;20415;-73
2022/02/19 06:25:59;;;;;;;10.93;2.30;;;5.50;30.40;;;;;;5026968;28;20401;-73
2022/02/19 06:28:25;;;;;;;5.13;2.13;;;5.50;30.60;;;;;;5041979;28;20717;-73
2022/02/19 06:30:51;;;;;;;11.98;2.60;;;5.50;30.50;;;;;;5023690;28;20395;-73
2022/02/19 06:33:16;;;;;;;12.80;2.78;;;5.40;30.50;;;;;;5028773;28;20403;-73
2022/02/19 06:35:42;;;;;;;10.95;2.40;;;5.40;30.70;;;;;;5028093;28;20398;-73
2022/02/19 06:38:07;;;;;;;14.10;2.60;;;5.40;30.40;;;;;;5015247;28;20397;-74
2022/02/19 06:40:33;;;;;;;14.80;2.60;;;5.40;30.70;;;;;;5022439;28;20503;-73
2022/02/19 06:42:59;;;;;;;10.20;2.40;;;5.30;31.00;;;;;;5026666;28;20418;-72
2022/02/19 06:45:24;;;;;;;9.75;2.35;;;5.20;31.10;;;;;;5029021;28;20807;-72
2022/02/19 06:47:50;;;;;;;14.50;2.38;;;5.20;31.70;;;;;;5032437;28;20485;-70
2022/02/19 06:50:15;;;;;;;16.88;2.67;;;5.20;31.90;;;;;;5028617;28;20387;-72
2022/02/19 06:52:41;;;;;;;8.35;2.35;;;5.20;31.60;;;;;;5026102;28;20917;-71
2022/02/19 06:55:07;;;;;;;14.63;2.53;;;5.20;31.60;;;;;;5025328;28;20830;-70
2022/02/19 06:57:33;;;;;;;14.55;2.92;;;5.30;31.10;;;;;;5018613;28;20812;-72
2022/02/19 06:59:58;;;;;;;11.10;1.90;;;5.30;31.10;;;;;;5030237;28;20400;-70
2022/02/19 07:02:24;;;;;;;14.13;2.33;;;5.30;30.60;;;;;;5019898;28;20418;-72
2022/02/19 07:04:49;;;;;;;11.27;2.20;;;5.30;31.10;;;;;;5026564;28;20516;-72
2022/02/19 07:07:15;;;;;;;8.33;2.63;;;5.30;31.30;;;;;;5023318;28;20424;-72
2022/02/19 07:09:41;;;;;;;17.33;2.55;;;5.30;31.20;;;;;;5022596;28;20403;-72
2022/02/19 07:12:08;;;;;;;9.68;2.30;;;5.30;31.20;;;;;;5030055;28;20445;-72
2022/02/19 07:14:33;;;;;;;8.68;2.05;;;5.30;31.40;;;;;;5028415;28;20438;-72
2022/02/19 07:17:04;;;;;;;12.57;2.40;;;5.30;31.20;;;;;;5030534;28;20398;-72
2022/02/19 07:19:34;;;;;;;10.13;1.95;;;5.30;31.30;;;;;;5036744;28;20406;-72
2022/02/19 07:22:00;;;;;;;14.60;3.03;;;5.30;31.00;;;;;;5021130;28;20447;-71
2022/02/19 07:24:26;;;;;;;13.15;2.53;;;5.30;31.10;;;;;;5029079;28;20391;-73
2022/02/19 07:26:51;;;;;;;13.43;3.00;;;5.40;31.00;;;;;;5032725;28;20461;-74
2022/02/19 07:29:17;;;;;;;14.27;3.20;;;5.50;31.00;;;;;;5032820;28;20452;-73
2022/02/19 07:31:43;;;;;;;12.65;2.58;;;5.50;31.20;;;;;;5027329;28;20529;-74
2022/02/19 07:34:08;;;;;;;7.90;2.45;;;5.50;30.50;;;;;;5025551;28;20767;-73
2022/02/19 07:36:34;;;;;;;17.10;3.63;;;5.60;30.40;;;;;;5019551;28;20466;-74
2022/02/19 07:39:00;;;;;;;12.70;2.20;;;5.60;30.50;;;;;;5017386;28;20485;-72
2022/02/19 07:41:26;;;;;;;12.80;3.00;;;5.60;30.20;;;;;;5021887;28;20745;-74
2022/02/19 07:43:51;;;;;;;14.32;2.67;;;5.60;30.30;;;;;;5024880;28;20538;-74
2022/02/19 07:46:18;;;;;;;19.05;3.13;;;5.60;30.60;;;;;;5020852;28;20408;-72
2022/02/19 07:48:44;;;;;;;10.45;2.30;;;5.60;30.90;;;;;;5019293;28;20862;-72
2022/02/19 07:59:09;;;;;;;14.40;3.00;;;5.70;31.60;;;;;;5026407;28;20402;-72
2022/02/19 08:01:35;;;;;;;10.05;3.30;;;5.80;31.00;;;;;;5028558;28;20398;-73
2022/02/19 08:04:01;;;;;;;15.18;2.50;;;5.80;31.00;;;;;;5017427;28;20424;-73
2022/02/19 08:06:26;;;;;;;19.88;3.03;;;5.90;31.10;;;;;;5023665;28;20913;-71
2022/02/19 08:08:52;;;;;;;14.98;3.42;;;6.00;30.70;;;;;;5020088;28;20461;-73
2022/02/19 08:11:17;;;;;;;11.40;2.58;;;6.20;30.00;;;;;;5028182;28;20407;-72
2022/02/19 08:13:43;;;;;;;10.73;2.70;;;6.30;29.20;;;;;;5025905;28;20397;-71
2022/02/19 08:16:09;;;;;;;10.67;3.30;;;6.40;29.10;;;;;;5026786;28;20395;-71
2022/02/19 08:18:37;;;;;;;20.73;2.70;;;6.50;28.80;;;;;;5029875;28;20482;-71
2022/02/19 08:21:03;;;;;;;14.43;2.28;;;6.50;28.90;;;;;;5028269;28;21160;-72
2022/02/19 08:23:29;;;;;;;11.55;2.70;;;6.50;28.90;;;;;;5029627;28;20414;-74
2022/02/19 08:25:55;;;;;;;16.83;2.67;;;6.50;28.60;;;;;;5026659;28;20397;-72
2022/02/19 08:28:21;;;;;;;18.02;3.30;;;6.30;29.00;;;;;;5026681;28;20916;-73
2022/02/19 08:30:47;;;;;;;12.80;2.60;;;6.20;29.50;;;;;;5030139;28;20758;-72
2022/02/19 08:33:13;;;;;;;13.70;3.40;;;6.20;29.90;;;;;;5026138;28;20556;-73
2022/02/19 08:35:41;;;;;;;14.45;3.15;;;6.20;29.30;;;;;;5018769;28;20395;-70
2022/02/19 08:38:07;;;;;;;16.50;2.90;;;6.30;29.20;;;;;;5019777;28;20933;-72
2022/02/19 08:40:33;;;;;;;13.17;2.87;;;6.50;28.90;;;;;;5024547;28;20402;-72
2022/02/19 08:42:59;;;;;;;10.73;2.50;;;6.80;28.20;;;;;;5037369;28;20467;-71
2022/02/19 08:45:25;;;;;;;17.15;2.92;;;6.90;27.40;;;;;;5028525;28;20410;-72
2022/02/19 08:47:54;;;;;;;17.20;3.13;;;7.00;27.10;;;;;;5031880;28;20482;-72
2022/02/19 08:50:20;;;;;;;11.32;2.60;;;7.00;26.80;;;;;;5036778;28;20398;-70
2022/02/19 08:52:48;;;;;;;16.17;2.92;;;7.40;26.10;;;;;;5027103;28;20411;-74
2022/02/19 08:55:16;;;;;;;18.53;3.03;;;7.70;24.90;;;;;;5026436;28;20406;-71
2022/02/19 08:57:41;;;;;;;13.85;2.60;;;7.70;24.20;;;;;;5033761;28;20410;-74
2022/02/19 09:00:12;;;;;;;17.33;3.30;;;7.70;24.60;;;;;;5033521;28;20391;-73
2022/02/19 09:02:38;;;;;;;15.38;2.60;;;7.80;24.30;;;;;;5028350;28;20426;-74
2022/02/19 09:05:06;;;;;;;15.00;3.10;;;7.70;24.60;;;;;;5033503;28;20470;-71
2022/02/19 09:07:36;;;;;;;11.70;2.80;;;7.60;24.50;;;;;;5027761;28;20464;-73
2022/02/19 09:10:03;;;;;;;16.80;2.90;;;7.40;25.60;;;;;;5024458;28;20454;-71
2022/02/19 09:12:29;;;;;;;13.75;2.60;;;7.30;26.00;;;;;;5023556;28;20934;-73
2022/02/19 09:14:55;;;;;;;13.40;3.13;;;7.40;25.40;;;;;;5026707;28;20404;-74
2022/02/19 09:17:21;;;;;;;11.75;3.50;;;7.40;25.40;;;;;;5027399;28;20405;-73
2022/02/19 09:19:46;;;;;;;21.38;5.30;;;7.50;25.20;;;;;;5021973;28;20758;-72
2022/02/19 09:22:12;;;;;;;12.20;2.60;;;7.60;25.00;;;;;;5025988;28;20438;-73
2022/02/19 09:24:38;;;;;;;21.08;5.47;;;7.70;24.30;;;;;;5026325;28;20829;-72
2022/02/19 09:27:04;;;;;;;32.53;14.80;;;7.70;24.40;;;;;;5025767;28;20428;-71
2022/02/19 09:29:29;;;;;;;11.20;2.70;;;7.80;24.60;;;;;;5027120;28;20394;-71
2022/02/19 09:31:55;;;;;;;14.77;4.22;;;7.80;23.80;;;;;;5025723;28;20431;-72
2022/02/19 09:34:23;;;;;;;38.90;16.83;;;7.80;24.40;;;;;;5024572;28;20443;-71
2022/02/19 09:36:50;;;;;;;13.30;2.55;;;8.00;24.90;;;;;;5016568;28;20439;-71
2022/02/19 09:39:15;;;;;;;10.48;2.60;;;8.10;23.00;;;;;;5014613;28;20779;-73
2022/02/19 09:41:45;;;;;;;15.83;2.70;;;8.10;23.40;;;;;;5018316;28;20403;-70
2022/02/19 09:44:11;;;;;;;22.00;4.72;;;8.10;23.30;;;;;;5022641;28;20435;-71
2022/02/19 09:46:37;;;;;;;14.35;4.22;;;8.10;23.80;;;;;;5013919;28;20384;-72
2022/02/19 09:49:05;;;;;;;14.90;3.03;;;8.20;22.80;;;;;;5018506;28;20436;-72
2022/02/19 09:51:32;;;;;;;12.32;2.60;;;8.10;21.30;;;;;;5029181;28;20397;-72
2022/02/19 09:53:57;;;;;;;17.60;2.90;;;8.00;22.20;;;;;;5016638;28;20397;-72
2022/02/19 09:56:27;;;;;;;11.57;2.40;;;8.00;22.80;;;;;;5015250;28;20397;-72
2022/02/19 09:58:54;;;;;;;14.52;2.80;;;8.10;22.30;;;;;;5022126;28;20395;-73
2022/02/19 10:01:22;;;;;;;8.82;2.35;;;8.20;21.80;;;;;;5035392;28;20407;-73
2022/02/19 10:03:58;;;;;;;12.93;2.53;;;8.30;21.10;;;;;;5028300;28;20442;-73
2022/02/19 10:06:31;;;;;;;11.80;2.28;;;8.60;20.80;;;;;;5022534;28;20446;-72
2022/02/19 10:09:16;;;;;;;14.43;2.83;;;8.80;20.30;;;;;;5028603;28;20515;-73
2022/02/19 10:11:43;;;;;;;15.18;3.25;;;8.80;20.90;;;;;;5032513;28;20414;-73
2022/02/19 10:14:24;;;;;;;14.48;5.30;;;8.80;20.70;;;;;;5030545;28;20898;-74
2022/02/19 10:17:04;;;;;;;15.10;2.72;;;8.90;20.30;;;;;;5037869;28;20802;-72
2022/02/19 10:19:44;;;;;;;9.07;2.38;;;8.70;20.00;;;;;;5023420;28;20409;-72
2022/02/19 10:22:11;;;;;;;8.27;2.60;;;8.50;20.40;;;;;;5014495;28;20400;-73
2022/02/19 10:24:37;;;;;;;13.30;2.20;;;8.20;21.20;;;;;;5028770;28;20474;-71
2022/02/19 10:27:03;;;;;;;12.90;2.78;;;8.10;21.50;;;;;;5019711;28;20940;-72
2022/02/19 10:29:33;;;;;;;11.68;2.30;;;8.10;21.30;;;;;;5023562;28;20395;-72
2022/02/19 10:31:58;;;;;;;14.17;3.00;;;8.30;21.80;;;;;;5027300;28;20414;-73
2022/02/19 10:34:24;;;;;;;8.77;2.20;;;8.50;21.40;;;;;;5021452;28;20864;-74
2022/02/19 10:36:54;;;;;;;9.75;2.30;;;8.60;21.20;;;;;;5021050;28;20395;-71
2022/02/19 10:39:31;;;;;;;12.65;2.90;;;8.60;21.20;;;;;;5024505;28;20443;-72
2022/02/19 10:42:03;;;;;;;9.45;2.40;;;8.80;21.70;;;;;;5025179;28;20428;-72
2022/02/19 10:44:31;;;;;;;12.90;2.97;;;9.10;20.10;;;;;;5028233;28;20511;-72
2022/02/19 10:47:24;;;;;;;11.93;2.58;;;9.10;20.10;;;;;;5025081;28;20383;-71
2022/02/19 10:50:16;;;;;;;15.32;2.90;;;9.10;20.10;;;;;;5017825;28;20456;-72
2022/02/19 10:52:43;;;;;;;12.35;2.80;;;9.40;20.60;;;;;;5020169;28;20399;-72
2022/02/19 10:55:14;;;;;;;11.13;2.92;;;9.60;19.40;;;;;;5026614;28;20475;-72
2022/02/19 10:57:45;;;;;;;11.63;2.10;;;9.60;19.20;;;;;;5019544;28;20443;-74
2022/02/19 11:00:15;;;;;;;13.07;2.17;;;9.60;18.80;;;;;;5028018;28;20411;-72
2022/02/19 11:02:43;;;;;;;12.18;2.80;;;9.70;19.10;;;;;;5027558;28;20407;-72
2022/02/19 11:05:10;;;;;;;10.02;2.30;;;9.60;18.90;;;;;;5027438;28;20403;-73
2022/02/19 11:07:37;;;;;;;9.57;2.90;;;9.50;19.20;;;;;;5021882;28;20393;-74
2022/02/19 11:10:05;;;;;;;13.30;2.35;;;9.50;18.70;;;;;;5027658;28;20403;-74
2022/02/19 11:12:31;;;;;;;13.20;2.63;;;9.60;18.80;;;;;;5020981;28;20451;-74
2022/02/19 11:14:57;;;;;;;11.17;2.40;;;9.80;18.50;;;;;;5018149;28;20428;-73
2022/02/19 11:17:24;;;;;;;7.80;2.60;;;9.70;17.90;;;;;;5018191;28;20417;-73
2022/02/19 11:19:49;;;;;;;7.97;2.13;;;9.70;18.00;;;;;;5022406;28;20745;-73
2022/02/19 11:22:18;;;;;;;10.43;2.40;;;9.70;18.20;;;;;;5025095;28;20395;-74
2022/02/19 11:24:45;;;;;;;11.13;2.72;;;9.70;18.20;;;;;;5025897;28;20912;-74
2022/02/19 11:27:13;;;;;;;14.82;2.40;;;9.80;18.30;;;;;;5023922;28;20730;-74
2022/02/19 11:29:40;;;;;;;8.07;2.20;;;9.90;18.20;;;;;;5025578;28;20482;-74
2022/02/19 11:32:11;;;;;;;11.48;2.30;;;10.00;17.20;;;;;;5023838;28;20412;-74
2022/02/19 11:34:37;;;;;;;11.05;2.60;;;10.20;16.90;;;;;;5016775;28;20400;-74
2022/02/19 11:37:15;;;;;;;9.10;2.20;;;10.40;16.80;;;;;;5014323;28;20901;-74
2022/02/19 11:40:12;;;;;;;8.05;2.25;;;10.60;15.80;;;;;;5025841;28;20400;-73
2022/02/19 11:42:56;;;;;;;4.18;1.50;;;10.70;14.90;;;;;;5024660;28;20434;-74
2022/02/19 11:45:31;;;;;;;10.23;2.40;;;10.40;13.80;;;;;;5020141;28;20400;-75
2022/02/19 11:48:02;;;;;;;8.63;2.00;;;10.20;15.10;;;;;;5020939;28;20400;-71
2022/02/19 11:50:30;;;;;;;7.20;1.70;;;9.90;15.20;;;;;;5020419;28;20477;-74
2022/02/19 11:53:22;;;;;;;6.57;2.10;;;9.80;15.50;;;;;;5017457;28;20924;-72
2022/02/19 11:55:48;;;;;;;6.60;2.20;;;9.90;15.50;;;;;;5015940;28;20444;-73
2022/02/19 11:58:22;;;;;;;8.05;2.20;;;10.00;15.40;;;;;;5025322;28;20400;-73
2022/02/19 12:00:51;;;;;;;7.43;1.85;;;9.90;15.90;;;;;;5028225;28;20414;-72
2022/02/19 12:03:23;;;;;;;8.77;2.10;;;9.80;15.50;;;;;;5023462;28;20978;-73
2022/02/19 12:06:08;;;;;;;8.98;2.42;;;9.70;15.40;;;;;;5017948;28;20415;-73
2022/02/19 12:08:48;;;;;;;5.88;1.77;;;9.70;15.70;;;;;;5018473;28;20735;-72
2022/02/19 12:11:16;;;;;;;8.65;2.10;;;9.70;15.40;;;;;;5019618;28;20398;-71
2022/02/19 12:13:46;;;;;;;9.65;1.88;;;9.60;15.40;;;;;;5021494;28;20394;-72
2022/02/19 12:16:39;;;;;;;9.75;1.90;;;9.60;16.10;;;;;;5026492;28;20391;-72
2022/02/19 12:19:12;;;;;;;8.75;2.33;;;9.70;16.00;;;;;;5026889;28;20400;-72
2022/02/19 12:21:43;;;;;;;9.75;2.00;;;9.80;15.60;;;;;;5020801;28;20458;-72
2022/02/19 12:24:19;;;;;;;10.68;2.17;;;10.00;15.00;;;;;;5023491;28;20944;-72
2022/02/19 12:26:57;;;;;;;8.07;2.00;;;10.00;15.60;;;;;;5031909;28;20808;-71
2022/02/19 12:29:30;;;;;;;5.00;2.03;;;10.00;15.20;;;;;;5026478;28;20391;-73
2022/02/19 12:32:17;;;;;;;10.15;2.20;;;10.00;14.50;;;;;;5026036;28;20501;-71
2022/02/19 12:34:54;;;;;;;9.35;1.60;;;10.00;14.40;;;;;;5023016;28;20486;-71
2022/02/19 12:37:21;;;;;;;7.88;2.30;;;9.90;15.00;;;;;;5020251;28;20423;-71
2022/02/19 12:39:53;;;;;;;5.40;1.70;;;9.90;14.90;;;;;;5018226;28;20405;-73
2022/02/19 12:42:21;;;;;;;13.15;1.95;;;9.80;14.00;;;;;;5017807;28;20421;-73
2022/02/19 12:44:48;;;;;;;8.23;2.00;;;9.70;15.00;;;;;;5023145;28;20403;-73
2022/02/19 12:47:18;;;;;;;8.68;2.45;;;9.70;16.40;;;;;;5016885;28;20432;-73
2022/02/19 12:49:43;;;;;;;10.00;2.10;;;9.70;17.00;;;;;;5016831;28;20405;-72
2022/02/19 12:52:09;;;;;;;11.65;2.40;;;9.80;17.00;;;;;;5022788;28;20400;-72
2022/02/19 12:54:42;;;;;;;10.10;2.30;;;10.10;16.90;;;;;;5023938;28;20395;-72
2022/02/19 12:57:10;;;;;;;11.05;2.00;;;10.30;15.10;;;;;;5026161;28;20399;-71
2022/02/19 12:59:38;;;;;;;5.32;1.92;;;10.40;14.90;;;;;;5025039;28;20395;-73